createdAt,value
2023-04-15T00:00:28.439Z,87268.00
2023-04-15T00:01:28.438Z,87266.00
2023-04-15T00:02:28.556Z,87266.00
2023-04-15T00:03:28.585Z,87264.00
2023-04-15T00:04:28.493Z,87264.00
2023-04-15T00:05:28.399Z,87262.00
2023-04-15T00:06:28.453Z,87262.00
2023-04-15T00:07:28.497Z,87264.00
2023-04-15T00:08:28.563Z,87262.00
2023-04-15T00:09:28.598Z,87258.00
2023-04-15T00:10:28.650Z,87256.00
2023-04-15T00:11:28.690Z,87258.00
2023-04-15T00:12:28.736Z,87258.00
2023-04-15T00:13:28.801Z,87260.00
2023-04-15T00:14:28.848Z,87258.00
2023-04-15T00:15:28.876Z,87262.00
2023-04-15T00:16:28.958Z,87262.00
2023-04-15T00:17:28.994Z,87260.00
2023-04-15T00:18:29.026Z,87262.00
2023-04-15T00:19:29.060Z,87260.00
2023-04-15T00:20:29.124Z,87264.00
2023-04-15T00:21:29.184Z,87262.00
2023-04-15T00:22:29.221Z,87260.00
2023-04-15T00:23:29.273Z,87262.00
2023-04-15T00:24:29.340Z,87264.00
2023-04-15T00:25:29.392Z,87264.00
2023-04-15T00:26:29.404Z,87264.00
2023-04-15T00:27:29.479Z,87264.00
2023-04-15T00:28:29.477Z,87258.00
2023-04-15T00:29:29.504Z,87260.00
2023-04-15T00:30:29.456Z,87264.00
2023-04-15T00:31:29.704Z,87264.00
2023-04-15T00:32:29.510Z,87262.00
2023-04-15T00:33:29.446Z,87264.00
2023-04-15T00:34:29.428Z,87262.00
2023-04-15T00:35:29.440Z,87264.00
2023-04-15T00:36:29.428Z,87264.00
2023-04-15T00:37:29.452Z,87262.00
2023-04-15T00:38:29.494Z,87262.00
2023-04-15T00:39:29.554Z,87262.00
2023-04-15T00:40:29.606Z,87260.00
2023-04-15T00:41:29.658Z,87260.00
2023-04-15T00:42:29.707Z,87258.00
2023-04-15T00:43:29.776Z,87258.00
2023-04-15T00:44:29.823Z,87256.00
2023-04-15T00:45:29.959Z,87258.00
2023-04-15T00:46:29.932Z,87258.00
2023-04-15T00:47:30.010Z,87260.00
2023-04-15T00:48:30.037Z,87260.00
2023-04-15T00:49:30.003Z,87262.00
2023-04-15T00:50:30.041Z,87256.00
2023-04-15T00:51:29.989Z,87258.00
2023-04-15T00:52:30.010Z,87256.00
2023-04-15T00:53:30.001Z,87254.00
2023-04-15T00:54:29.965Z,87254.00
2023-04-15T00:55:30.017Z,87254.00
2023-04-15T00:56:29.973Z,87258.00
2023-04-15T00:57:29.943Z,87258.00
2023-04-15T00:58:30.006Z,87258.00
2023-04-15T00:59:30.043Z,87258.00
2023-04-15T01:00:30.096Z,87258.00
2023-04-15T01:01:30.218Z,87260.00
2023-04-15T01:02:30.303Z,87258.00
2023-04-15T01:03:30.282Z,87256.00
2023-04-15T01:04:30.407Z,87256.00
2023-04-15T01:05:30.331Z,87256.00
2023-04-15T01:06:30.386Z,87254.00
2023-04-15T01:07:30.448Z,87254.00
2023-04-15T01:08:30.507Z,87256.00
2023-04-15T01:09:30.562Z,87256.00
2023-04-15T01:10:30.609Z,87254.00
2023-04-15T01:11:30.686Z,87256.00
2023-04-15T01:12:30.703Z,87256.00
2023-04-15T01:13:30.757Z,87256.00
2023-04-15T01:14:30.818Z,87256.00
2023-04-15T01:15:30.858Z,87256.00
2023-04-15T01:16:30.963Z,87256.00
2023-04-15T01:17:31.003Z,87256.00
2023-04-15T01:18:31.029Z,87256.00
2023-04-15T01:19:31.089Z,87258.00
2023-04-15T01:20:31.137Z,87260.00
2023-04-15T01:21:31.189Z,87258.00
2023-04-15T01:22:31.240Z,87256.00
2023-04-15T01:23:31.307Z,87258.00
2023-04-15T01:24:31.368Z,87258.00
2023-04-15T01:25:31.407Z,87256.00
2023-04-15T01:26:31.472Z,87254.00
2023-04-15T01:27:31.524Z,87254.00
2023-04-15T01:28:31.576Z,87254.00
2023-04-15T01:29:31.634Z,87256.00
2023-04-15T01:30:31.688Z,87252.00
2023-04-15T01:31:31.823Z,87254.00
2023-04-15T01:32:31.838Z,87254.00
2023-04-15T01:33:31.876Z,87256.00
2023-04-15T01:34:34.284Z,87258.00
2023-04-15T01:35:31.916Z,87260.00
2023-04-15T01:36:31.899Z,87260.00
2023-04-15T01:37:31.907Z,87258.00
2023-04-15T01:38:31.902Z,87260.00
2023-04-15T01:39:31.907Z,87260.00
2023-04-15T01:40:31.902Z,87256.00
2023-04-15T01:41:31.901Z,87258.00
2023-04-15T01:42:31.910Z,87256.00
2023-04-15T01:43:31.892Z,87256.00
2023-04-15T01:44:31.887Z,87254.00
2023-04-15T01:45:31.898Z,87254.00
2023-04-15T01:46:31.923Z,87254.00
2023-04-15T01:47:31.964Z,87254.00
2023-04-15T01:48:31.905Z,87254.00
2023-04-15T01:49:31.891Z,87254.00
2023-04-15T01:50:31.864Z,87256.00
2023-04-15T01:51:31.886Z,87256.00
2023-04-15T01:52:31.867Z,87258.00
2023-04-15T01:53:31.866Z,87258.00
2023-04-15T01:54:31.863Z,87256.00
2023-04-15T01:55:31.869Z,87256.00
2023-04-15T01:56:31.848Z,87258.00
2023-04-15T01:57:31.843Z,87260.00
2023-04-15T01:58:31.815Z,87258.00
2023-04-15T01:59:31.835Z,87258.00
2023-04-15T02:00:31.811Z,87258.00
2023-04-15T02:01:31.871Z,87258.00
2023-04-15T02:02:31.946Z,87254.00
2023-04-15T02:03:31.923Z,87254.00
2023-04-15T02:04:31.798Z,87254.00
2023-04-15T02:05:31.857Z,87252.00
2023-04-15T02:06:31.923Z,87248.00
2023-04-15T02:07:31.965Z,87250.00
2023-04-15T02:08:32.026Z,87248.00
2023-04-15T02:09:32.090Z,87252.00
2023-04-15T02:10:32.151Z,87248.00
2023-04-15T02:11:32.224Z,87252.00
2023-04-15T02:12:32.238Z,87250.00
2023-04-15T02:13:32.283Z,87248.00
2023-04-15T02:14:32.356Z,87246.00
2023-04-15T02:15:32.399Z,87248.00
2023-04-15T02:16:32.544Z,87252.00
2023-04-15T02:17:32.603Z,87252.00
2023-04-15T02:18:32.569Z,87252.00
2023-04-15T02:19:32.631Z,87254.00
2023-04-15T02:20:32.683Z,87254.00
2023-04-15T02:21:32.736Z,87254.00
2023-04-15T02:22:32.882Z,87256.00
2023-04-15T02:23:32.858Z,87256.00
2023-04-15T02:24:32.911Z,87254.00
2023-04-15T02:25:33.005Z,87254.00
2023-04-15T02:26:33.015Z,87254.00
2023-04-15T02:27:33.089Z,87252.00
2023-04-15T02:28:33.121Z,87252.00
2023-04-15T02:29:33.172Z,87252.00
2023-04-15T02:30:33.229Z,87252.00
2023-04-15T02:31:33.289Z,87252.00
2023-04-15T02:32:33.340Z,87250.00
2023-04-15T02:33:33.400Z,87250.00
2023-04-15T02:34:33.434Z,87244.00
2023-04-15T02:35:33.475Z,87246.00
2023-04-15T02:36:33.528Z,87244.00
2023-04-15T02:37:33.576Z,87246.00
2023-04-15T02:38:33.646Z,87246.00
2023-04-15T02:39:33.723Z,87246.00
2023-04-15T02:40:33.733Z,87252.00
2023-04-15T02:41:33.825Z,87250.00
2023-04-15T02:42:33.860Z,87252.00
2023-04-15T02:43:33.930Z,87252.00
2023-04-15T02:44:34.015Z,87252.00
2023-04-15T02:45:34.047Z,87250.00
2023-04-15T02:46:34.160Z,87252.00
2023-04-15T02:47:34.128Z,87250.00
2023-04-15T02:48:34.107Z,87248.00
2023-04-15T02:49:34.168Z,87250.00
2023-04-15T02:50:34.117Z,87248.00
2023-04-15T02:51:34.660Z,87250.00
2023-04-15T02:52:34.241Z,87250.00
2023-04-15T02:53:34.136Z,87250.00
2023-04-15T02:54:34.135Z,87246.00
2023-04-15T02:55:34.227Z,87244.00
2023-04-15T02:56:34.119Z,87244.00
2023-04-15T02:57:34.171Z,87244.00
2023-04-15T02:58:34.162Z,87246.00
2023-04-15T02:59:34.167Z,87248.00
2023-04-15T03:00:34.198Z,87250.00
2023-04-15T03:01:34.210Z,87248.00
2023-04-15T03:02:34.242Z,87250.00
2023-04-15T03:03:34.270Z,87246.00
2023-04-15T03:04:34.237Z,87248.00
2023-04-15T03:05:34.304Z,87246.00
2023-04-15T03:06:34.292Z,87244.00
2023-04-15T03:07:34.289Z,87242.00
2023-04-15T03:08:34.345Z,87242.00
2023-04-15T03:09:34.341Z,87244.00
2023-04-15T03:10:34.385Z,87240.00
2023-04-15T03:11:36.060Z,87242.00
2023-04-15T03:12:34.426Z,87238.00
2023-04-15T03:13:34.481Z,87238.00
2023-04-15T03:14:34.415Z,87240.00
2023-04-15T03:15:34.436Z,87240.00
2023-04-15T03:16:34.519Z,87240.00
2023-04-15T03:17:34.452Z,87240.00
2023-04-15T03:18:34.445Z,87240.00
2023-04-15T03:19:34.413Z,87238.00
2023-04-15T03:20:34.459Z,87238.00
2023-04-15T03:21:34.409Z,87240.00
2023-04-15T03:22:34.439Z,87240.00
2023-04-15T03:23:34.428Z,87240.00
2023-04-15T03:24:34.456Z,87240.00
2023-04-15T03:25:34.477Z,87238.00
2023-04-15T03:26:34.488Z,87242.00
2023-04-15T03:27:34.460Z,87242.00
2023-04-15T03:28:34.455Z,87238.00
2023-04-15T03:29:34.470Z,87238.00
2023-04-15T03:30:34.459Z,87238.00
2023-04-15T03:31:34.484Z,87238.00
2023-04-15T03:32:34.473Z,87240.00
2023-04-15T03:33:34.461Z,87240.00
2023-04-15T03:34:34.465Z,87240.00
2023-04-15T03:35:34.665Z,87242.00
2023-04-15T03:36:34.486Z,87238.00
2023-04-15T03:37:34.471Z,87242.00
2023-04-15T03:38:34.483Z,87240.00
2023-04-15T03:39:34.469Z,87240.00
2023-04-15T03:40:34.470Z,87242.00
2023-04-15T03:41:34.506Z,87242.00
2023-04-15T03:42:34.482Z,87240.00
2023-04-15T03:43:34.505Z,87244.00
2023-04-15T03:44:34.484Z,87244.00
2023-04-15T03:45:34.487Z,87244.00
2023-04-15T03:46:34.505Z,87242.00
2023-04-15T03:47:34.534Z,87240.00
2023-04-15T03:48:34.482Z,87242.00
2023-04-15T03:49:34.528Z,87242.00
2023-04-15T03:50:34.529Z,87240.00
2023-04-15T03:51:34.485Z,87246.00
2023-04-15T03:52:34.452Z,87246.00
2023-04-15T03:53:35.178Z,87244.00
2023-04-15T03:54:34.466Z,87246.00
2023-04-15T03:55:34.525Z,87244.00
2023-04-15T03:56:34.458Z,87244.00
2023-04-15T03:57:34.460Z,87246.00
2023-04-15T03:58:34.460Z,87246.00
2023-04-15T03:59:34.464Z,87246.00
2023-04-15T04:00:34.478Z,87248.00
2023-04-15T04:01:34.591Z,87252.00
2023-04-15T04:02:34.549Z,87252.00
2023-04-15T04:03:35.324Z,87250.00
2023-04-15T04:04:34.552Z,87252.00
2023-04-15T04:05:34.557Z,87248.00
2023-04-15T04:06:34.579Z,87250.00
2023-04-15T04:07:34.607Z,87252.00
2023-04-15T04:08:34.658Z,87252.00
2023-04-15T04:09:34.644Z,87244.00
2023-04-15T04:10:34.690Z,87248.00
2023-04-15T04:11:34.695Z,87248.00
2023-04-15T04:12:34.754Z,87250.00
2023-04-15T04:13:34.759Z,87244.00
2023-04-15T04:14:34.756Z,87246.00
2023-04-15T04:15:34.787Z,87246.00
2023-04-15T04:16:34.820Z,87248.00
2023-04-15T04:17:34.789Z,87246.00
2023-04-15T04:18:34.766Z,87248.00
2023-04-15T04:19:34.774Z,87248.00
2023-04-15T04:20:34.770Z,87248.00
2023-04-15T04:21:34.775Z,87252.00
2023-04-15T04:22:34.785Z,87248.00
2023-04-15T04:23:34.859Z,87250.00
2023-04-15T04:24:34.779Z,87250.00
2023-04-15T04:25:34.814Z,87248.00
2023-04-15T04:26:34.808Z,87248.00
2023-04-15T04:27:34.813Z,87246.00
2023-04-15T04:28:34.821Z,87246.00
2023-04-15T04:29:34.817Z,87248.00
2023-04-15T04:30:34.819Z,87248.00
2023-04-15T04:31:34.840Z,87252.00
2023-04-15T04:32:34.870Z,87250.00
2023-04-15T04:33:34.828Z,87252.00
2023-04-15T04:34:34.869Z,87254.00
2023-04-15T04:35:34.870Z,87254.00
2023-04-15T04:36:34.865Z,87258.00
2023-04-15T04:37:34.883Z,87256.00
2023-04-15T04:38:34.869Z,87256.00
2023-04-15T04:39:34.875Z,87258.00
2023-04-15T04:40:34.896Z,87258.00
2023-04-15T04:41:34.912Z,87262.00
2023-04-15T04:42:35.442Z,87260.00
2023-04-15T04:43:34.904Z,87260.00
2023-04-15T04:44:34.911Z,87262.00
2023-04-15T04:45:34.945Z,87262.00
2023-04-15T04:46:34.950Z,87264.00
2023-04-15T04:47:35.063Z,87262.00
2023-04-15T04:48:35.047Z,87264.00
2023-04-15T04:49:35.083Z,87268.00
2023-04-15T04:50:35.152Z,87264.00
2023-04-15T04:51:35.201Z,87268.00
2023-04-15T04:52:35.265Z,87272.00
2023-04-15T04:53:35.305Z,87272.00
2023-04-15T04:54:35.334Z,87272.00
2023-04-15T04:55:35.399Z,87272.00
2023-04-15T04:56:35.434Z,87274.00
2023-04-15T04:57:35.507Z,87276.00
2023-04-15T04:58:35.554Z,87276.00
2023-04-15T04:59:35.571Z,87278.00
2023-04-15T05:00:35.653Z,87280.00
2023-04-15T05:01:35.751Z,87280.00
2023-04-15T05:02:35.826Z,87280.00
2023-04-15T05:03:36.051Z,87278.00
2023-04-15T05:04:35.861Z,87278.00
2023-04-15T05:05:35.900Z,87278.00
2023-04-15T05:06:35.974Z,87280.00
2023-04-15T05:07:36.003Z,87281.00
2023-04-15T05:08:36.065Z,87280.00
2023-04-15T05:09:36.115Z,87281.00
2023-04-15T05:10:36.174Z,87281.00
2023-04-15T05:11:36.246Z,87280.00
2023-04-15T05:12:36.278Z,87278.00
2023-04-15T05:13:36.350Z,87278.00
2023-04-15T05:14:36.396Z,87278.00
2023-04-15T05:15:36.460Z,87278.00
2023-04-15T05:16:36.552Z,87280.00
2023-04-15T05:17:36.619Z,87280.00
2023-04-15T05:18:36.643Z,87278.00
2023-04-15T05:19:36.707Z,87281.00
2023-04-15T05:20:36.792Z,87278.00
2023-04-15T05:21:38.996Z,87276.00
2023-04-15T05:22:36.856Z,87276.00
2023-04-15T05:23:36.820Z,87278.00
2023-04-15T05:24:36.853Z,87274.00
2023-04-15T05:25:36.857Z,87278.00
2023-04-15T05:26:37.220Z,87276.00
2023-04-15T05:27:36.878Z,87276.00
2023-04-15T05:28:36.860Z,87276.00
2023-04-15T05:29:36.870Z,87274.00
2023-04-15T05:30:36.859Z,87272.00
2023-04-15T05:31:36.934Z,87274.00
2023-04-15T05:32:36.896Z,87274.00
2023-04-15T05:33:36.881Z,87278.00
2023-04-15T05:34:36.882Z,87278.00
2023-04-15T05:35:36.902Z,87280.00
2023-04-15T05:36:36.912Z,87280.00
2023-04-15T05:37:36.904Z,87281.00
2023-04-15T05:38:36.910Z,87280.00
2023-04-15T05:39:36.923Z,87281.00
2023-04-15T05:40:36.919Z,87281.00
2023-04-15T05:41:36.920Z,87281.00
2023-04-15T05:42:36.951Z,87281.00
2023-04-15T05:43:37.030Z,87285.00
2023-04-15T05:44:36.956Z,87283.00
2023-04-15T05:45:36.967Z,87287.00
2023-04-15T05:46:37.228Z,87289.00
2023-04-15T05:47:37.116Z,87285.00
2023-04-15T05:48:37.172Z,87289.00
2023-04-15T05:49:38.220Z,87289.00
2023-04-15T05:50:37.281Z,87287.00
2023-04-15T05:51:37.350Z,87287.00
2023-04-15T05:52:37.408Z,87287.00
2023-04-15T05:53:37.477Z,87289.00
2023-04-15T05:54:37.532Z,87283.00
2023-04-15T05:55:37.585Z,87289.00
2023-04-15T05:56:37.593Z,87287.00
2023-04-15T05:57:37.599Z,87287.00
2023-04-15T05:58:37.592Z,87287.00
2023-04-15T05:59:37.589Z,87289.00
2023-04-15T06:00:37.600Z,87287.00
2023-04-15T06:01:37.617Z,87289.00
2023-04-15T06:02:37.858Z,87289.00
2023-04-15T06:03:37.837Z,87289.00
2023-04-15T06:04:37.756Z,87291.00
2023-04-15T06:05:37.631Z,87291.00
2023-04-15T06:06:37.644Z,87291.00
2023-04-15T06:07:37.695Z,87293.00
2023-04-15T06:08:37.753Z,87293.00
2023-04-15T06:09:37.816Z,87293.00
2023-04-15T06:10:37.887Z,87291.00
2023-04-15T06:11:37.959Z,87291.00
2023-04-15T06:12:38.003Z,87293.00
2023-04-15T06:13:38.064Z,87291.00
2023-04-15T06:14:38.103Z,87293.00
2023-04-15T06:15:38.169Z,87293.00
2023-04-15T06:16:38.348Z,87295.00
2023-04-15T06:17:38.296Z,87291.00
2023-04-15T06:18:38.340Z,87291.00
2023-04-15T06:19:38.376Z,87293.00
2023-04-15T06:20:38.444Z,87291.00
2023-04-15T06:21:38.529Z,87293.00
2023-04-15T06:22:38.537Z,87291.00
2023-04-15T06:23:38.593Z,87293.00
2023-04-15T06:24:38.660Z,87293.00
2023-04-15T06:25:38.725Z,87291.00
2023-04-15T06:26:38.786Z,87289.00
2023-04-15T06:27:38.826Z,87289.00
2023-04-15T06:28:38.901Z,87291.00
2023-04-15T06:29:38.939Z,87289.00
2023-04-15T06:30:39.008Z,87291.00
2023-04-15T06:31:39.208Z,87289.00
2023-04-15T06:32:39.169Z,87289.00
2023-04-15T06:33:39.178Z,87291.00
2023-04-15T06:34:39.247Z,87293.00
2023-04-15T06:35:39.352Z,87291.00
2023-04-15T06:36:39.381Z,87291.00
2023-04-15T06:37:39.430Z,87293.00
2023-04-15T06:38:39.499Z,87295.00
2023-04-15T06:39:39.561Z,87293.00
2023-04-15T06:40:39.650Z,87293.00
2023-04-15T06:41:39.717Z,87295.00
2023-04-15T06:42:39.750Z,87295.00
2023-04-15T06:43:39.804Z,87295.00
2023-04-15T06:44:39.853Z,87293.00
2023-04-15T06:45:39.922Z,87293.00
2023-04-15T06:46:39.996Z,87289.00
2023-04-15T06:47:40.072Z,87289.00
2023-04-15T06:48:40.083Z,87287.00
2023-04-15T06:49:40.151Z,87289.00
2023-04-15T06:50:40.190Z,87287.00
2023-04-15T06:51:40.263Z,87287.00
2023-04-15T06:52:40.309Z,87289.00
2023-04-15T06:53:40.299Z,87287.00
2023-04-15T06:54:40.324Z,87289.00
2023-04-15T06:55:40.312Z,87289.00
2023-04-15T06:56:40.377Z,87293.00
2023-04-15T06:57:40.334Z,87295.00
2023-04-15T06:58:40.346Z,87293.00
2023-04-15T06:59:40.355Z,87293.00
2023-04-15T07:00:40.506Z,87291.00
2023-04-15T07:01:40.388Z,87295.00
2023-04-15T07:02:40.500Z,87295.00
2023-04-15T07:03:40.323Z,87297.00
2023-04-15T07:04:40.531Z,87295.00
2023-04-15T07:05:40.334Z,87295.00
2023-04-15T07:06:40.326Z,87293.00
2023-04-15T07:07:40.329Z,87295.00
2023-04-15T07:08:40.334Z,87293.00
2023-04-15T07:09:40.336Z,87295.00
2023-04-15T07:10:40.334Z,87295.00
2023-04-15T07:11:40.362Z,87293.00
2023-04-15T07:12:40.354Z,87295.00
2023-04-15T07:13:40.376Z,87293.00
2023-04-15T07:14:40.413Z,87287.00
2023-04-15T07:15:40.438Z,87287.00
2023-04-15T07:16:40.496Z,87291.00
2023-04-15T07:17:40.514Z,87291.00
2023-04-15T07:18:40.503Z,87289.00
2023-04-15T07:19:40.528Z,87289.00
2023-04-15T07:20:40.568Z,87291.00
2023-04-15T07:21:41.905Z,87289.00
2023-04-15T07:22:40.604Z,87289.00
2023-04-15T07:23:40.632Z,87293.00
2023-04-15T07:24:40.614Z,87291.00
2023-04-15T07:25:40.614Z,87287.00
2023-04-15T07:26:40.634Z,87289.00
2023-04-15T07:27:40.618Z,87291.00
2023-04-15T07:28:40.593Z,87287.00
2023-04-15T07:29:40.590Z,87287.00
2023-04-15T07:30:40.603Z,87287.00
2023-04-15T07:31:40.629Z,87287.00
2023-04-15T07:32:40.660Z,87289.00
2023-04-15T07:33:40.601Z,87289.00
2023-04-15T07:34:40.567Z,87291.00
2023-04-15T07:35:40.571Z,87291.00
2023-04-15T07:36:40.576Z,87291.00
2023-04-15T07:37:40.578Z,87291.00
2023-04-15T07:38:40.549Z,87289.00
2023-04-15T07:39:40.548Z,87291.00
2023-04-15T07:40:40.563Z,87291.00
2023-04-15T07:41:40.552Z,87289.00
2023-04-15T07:42:41.472Z,87293.00
2023-04-15T07:43:40.514Z,87289.00
2023-04-15T07:44:40.550Z,87289.00
2023-04-15T07:45:40.621Z,87289.00
2023-04-15T07:46:40.808Z,87289.00
2023-04-15T07:47:40.770Z,87287.00
2023-04-15T07:48:40.820Z,87289.00
2023-04-15T07:49:40.839Z,87287.00
2023-04-15T07:50:40.906Z,87287.00
2023-04-15T07:51:40.968Z,87287.00
2023-04-15T07:52:41.017Z,87287.00
2023-04-15T07:53:41.088Z,87285.00
2023-04-15T07:54:41.162Z,87285.00
2023-04-15T07:55:41.132Z,87289.00
2023-04-15T07:56:41.124Z,87287.00
2023-04-15T07:57:41.121Z,87289.00
2023-04-15T07:58:41.125Z,87285.00
2023-04-15T07:59:41.118Z,87289.00
2023-04-15T08:00:41.092Z,87281.00
2023-04-15T08:01:41.095Z,87283.00
2023-04-15T08:02:41.322Z,87285.00
2023-04-15T08:03:41.234Z,87285.00
2023-04-15T08:04:41.342Z,87285.00
2023-04-15T08:05:41.190Z,87285.00
2023-04-15T08:06:41.230Z,87285.00
2023-04-15T08:07:41.326Z,87289.00
2023-04-15T08:08:41.341Z,87287.00
2023-04-15T08:09:41.343Z,87283.00
2023-04-15T08:10:41.348Z,87283.00
2023-04-15T08:11:41.318Z,87283.00
2023-04-15T08:12:41.308Z,87281.00
2023-04-15T08:13:41.285Z,87281.00
2023-04-15T08:14:41.278Z,87278.00
2023-04-15T08:15:41.294Z,87281.00
2023-04-15T08:16:41.259Z,87280.00
2023-04-15T08:17:41.360Z,87280.00
2023-04-15T08:18:41.375Z,87278.00
2023-04-15T08:19:41.396Z,87278.00
2023-04-15T08:20:41.453Z,87278.00
2023-04-15T08:21:41.525Z,87281.00
2023-04-15T08:22:41.601Z,87280.00
2023-04-15T08:23:41.632Z,87278.00
2023-04-15T08:24:41.671Z,87278.00
2023-04-15T08:25:41.702Z,87276.00
2023-04-15T08:26:41.745Z,87278.00
2023-04-15T08:27:41.781Z,87278.00
2023-04-15T08:28:41.820Z,87280.00
2023-04-15T08:29:41.864Z,87280.00
2023-04-15T08:30:41.888Z,87278.00
2023-04-15T08:31:41.976Z,87281.00
2023-04-15T08:32:42.012Z,87280.00
2023-04-15T08:33:42.021Z,87281.00
2023-04-15T08:34:42.062Z,87281.00
2023-04-15T08:35:42.096Z,87281.00
2023-04-15T08:36:42.119Z,87281.00
2023-04-15T08:37:42.166Z,87280.00
2023-04-15T08:38:42.240Z,87280.00
2023-04-15T08:39:42.245Z,87281.00
2023-04-15T08:40:42.279Z,87285.00
2023-04-15T08:41:42.311Z,87283.00
2023-04-15T08:42:42.957Z,87285.00
2023-04-15T08:43:42.356Z,87283.00
2023-04-15T08:44:42.384Z,87285.00
2023-04-15T08:45:42.439Z,87283.00
2023-04-15T08:46:42.519Z,87283.00
2023-04-15T08:47:42.529Z,87283.00
2023-04-15T08:48:42.478Z,87283.00
2023-04-15T08:49:42.498Z,87280.00
2023-04-15T08:50:42.508Z,87280.00
2023-04-15T08:51:42.534Z,87280.00
2023-04-15T08:52:42.558Z,87276.00
2023-04-15T08:53:42.569Z,87276.00
2023-04-15T08:54:42.555Z,87272.00
2023-04-15T08:55:42.581Z,87274.00
2023-04-15T08:56:42.687Z,87274.00
2023-04-15T08:57:42.609Z,87278.00
2023-04-15T08:58:42.587Z,87272.00
2023-04-15T08:59:42.597Z,87274.00
2023-04-15T09:00:42.620Z,87274.00
2023-04-15T09:01:42.790Z,87270.00
2023-04-15T09:02:42.827Z,87272.00
2023-04-15T09:03:42.744Z,87268.00
2023-04-15T09:04:42.610Z,87272.00
2023-04-15T09:05:42.617Z,87272.00
2023-04-15T09:06:42.607Z,87272.00
2023-04-15T09:07:42.646Z,87272.00
2023-04-15T09:08:42.593Z,87272.00
2023-04-15T09:09:42.599Z,87272.00
2023-04-15T09:10:42.576Z,87270.00
2023-04-15T09:11:42.595Z,87270.00
2023-04-15T09:12:42.563Z,87270.00
2023-04-15T09:13:42.554Z,87270.00
2023-04-15T09:14:42.558Z,87274.00
2023-04-15T09:15:42.520Z,87268.00
2023-04-15T09:16:42.542Z,87266.00
2023-04-15T09:17:42.534Z,87270.00
2023-04-15T09:18:42.489Z,87268.00
2023-04-15T09:19:42.475Z,87266.00
2023-04-15T09:20:42.452Z,87266.00
2023-04-15T09:21:42.427Z,87264.00
2023-04-15T09:22:42.398Z,87266.00
2023-04-15T09:23:42.391Z,87262.00
2023-04-15T09:24:42.397Z,87266.00
2023-04-15T09:25:42.361Z,87262.00
2023-04-15T09:26:42.329Z,87264.00
2023-04-15T09:27:42.322Z,87264.00
2023-04-15T09:28:42.293Z,87262.00
2023-04-15T09:29:42.297Z,87260.00
2023-04-15T09:30:42.282Z,87256.00
2023-04-15T09:31:42.235Z,87266.00
2023-04-15T09:32:42.224Z,87266.00
2023-04-15T09:33:42.194Z,87264.00
2023-04-15T09:34:42.183Z,87260.00
2023-04-15T09:35:42.143Z,87258.00
2023-04-15T09:36:42.138Z,87256.00
2023-04-15T09:37:42.098Z,87256.00
2023-04-15T09:38:42.116Z,87254.00
2023-04-15T09:39:42.079Z,87252.00
2023-04-15T09:40:42.074Z,87254.00
2023-04-15T09:41:42.089Z,87256.00
2023-04-15T09:42:42.083Z,87256.00
2023-04-15T09:43:42.159Z,87250.00
2023-04-15T09:44:42.154Z,87254.00
2023-04-15T09:45:42.182Z,87256.00
2023-04-15T09:46:42.215Z,87252.00
2023-04-15T09:47:42.253Z,87256.00
2023-04-15T09:48:42.294Z,87256.00
2023-04-15T09:49:42.373Z,87252.00
2023-04-15T09:50:42.322Z,87250.00
2023-04-15T09:51:51.187Z,87252.00
2023-04-15T09:52:43.329Z,87254.00
2023-04-15T09:53:42.305Z,87252.00
2023-04-15T09:54:42.288Z,87250.00
2023-04-15T09:55:42.274Z,87252.00
2023-04-15T09:56:42.248Z,87256.00
2023-04-15T09:57:42.243Z,87250.00
2023-04-15T09:58:42.200Z,87256.00
2023-04-15T09:59:42.334Z,87256.00
2023-04-15T10:00:42.142Z,87256.00
2023-04-15T10:01:42.156Z,87254.00
2023-04-15T10:02:42.180Z,87256.00
2023-04-15T10:03:42.152Z,87254.00
2023-04-15T10:04:42.066Z,87254.00
2023-04-15T10:05:42.055Z,87256.00
2023-04-15T10:06:42.006Z,87256.00
2023-04-15T10:07:41.985Z,87254.00
2023-04-15T10:08:41.975Z,87256.00
2023-04-15T10:09:41.945Z,87254.00
2023-04-15T10:10:41.912Z,87254.00
2023-04-15T10:11:41.898Z,87248.00
2023-04-15T10:12:41.872Z,87254.00
2023-04-15T10:13:41.856Z,87258.00
2023-04-15T10:14:41.846Z,87254.00
2023-04-15T10:15:41.810Z,87254.00
2023-04-15T10:16:41.805Z,87254.00
2023-04-15T10:17:41.738Z,87250.00
2023-04-15T10:18:41.721Z,87256.00
2023-04-15T10:19:41.688Z,87254.00
2023-04-15T10:20:41.665Z,87248.00
2023-04-15T10:21:41.631Z,87254.00
2023-04-15T10:22:41.590Z,87256.00
2023-04-15T10:23:41.568Z,87256.00
2023-04-15T10:24:41.550Z,87260.00
2023-04-15T10:25:41.531Z,87254.00
2023-04-15T10:26:41.496Z,87252.00
2023-04-15T10:27:41.467Z,87256.00
2023-04-15T10:28:41.507Z,87254.00
2023-04-15T10:29:41.453Z,87254.00
2023-04-15T10:30:41.462Z,87252.00
2023-04-15T10:31:41.604Z,87252.00
2023-04-15T10:32:41.534Z,87258.00
2023-04-15T10:33:41.488Z,87256.00
2023-04-15T10:34:41.503Z,87252.00
2023-04-15T10:35:41.453Z,87256.00
2023-04-15T10:36:41.411Z,87260.00
2023-04-15T10:37:41.390Z,87264.00
2023-04-15T10:38:41.343Z,87264.00
2023-04-15T10:39:41.332Z,87262.00
2023-04-15T10:40:41.371Z,87262.00
2023-04-15T10:41:41.276Z,87264.00
2023-04-15T10:42:41.299Z,87262.00
2023-04-15T10:43:41.314Z,87260.00
2023-04-15T10:44:41.357Z,87262.00
2023-04-15T10:45:41.385Z,87260.00
2023-04-15T10:46:41.456Z,87266.00
2023-04-15T10:47:41.413Z,87266.00
2023-04-15T10:48:41.359Z,87266.00
2023-04-15T10:49:41.348Z,87270.00
2023-04-15T10:50:41.332Z,87270.00
2023-04-15T10:51:41.286Z,87272.00
2023-04-15T10:52:41.259Z,87272.00
2023-04-15T10:53:41.251Z,87274.00
2023-04-15T10:54:41.219Z,87276.00
2023-04-15T10:55:41.186Z,87278.00
2023-04-15T10:56:41.221Z,87274.00
2023-04-15T10:57:41.254Z,87270.00
2023-04-15T10:58:41.292Z,87272.00
2023-04-15T10:59:41.341Z,87272.00
2023-04-15T11:00:41.373Z,87266.00
2023-04-15T11:01:41.483Z,87268.00
2023-04-15T11:02:41.832Z,87268.00
2023-04-15T11:03:41.579Z,87264.00
2023-04-15T11:04:43.083Z,87264.00
2023-04-15T11:05:41.359Z,87266.00
2023-04-15T11:06:41.336Z,87268.00
2023-04-15T11:07:41.339Z,87268.00
2023-04-15T11:08:41.282Z,87268.00
2023-04-15T11:09:41.256Z,87274.00
2023-04-15T11:10:41.235Z,87270.00
2023-04-15T11:11:41.221Z,87270.00
2023-04-15T11:12:41.300Z,87272.00
2023-04-15T11:13:41.172Z,87268.00
2023-04-15T11:14:41.201Z,87272.00
2023-04-15T11:15:41.263Z,87270.00
2023-04-15T11:16:41.321Z,87270.00
2023-04-15T11:17:41.330Z,87266.00
2023-04-15T11:18:41.332Z,87266.00
2023-04-15T11:19:41.370Z,87264.00
2023-04-15T11:20:41.386Z,87266.00
2023-04-15T11:21:41.411Z,87270.00
2023-04-15T11:22:41.431Z,87276.00
2023-04-15T11:23:41.472Z,87276.00
2023-04-15T11:24:41.518Z,87272.00
2023-04-15T11:25:41.579Z,87276.00
2023-04-15T11:26:41.585Z,87272.00
2023-04-15T11:27:41.581Z,87270.00
2023-04-15T11:28:41.567Z,87270.00
2023-04-15T11:29:41.576Z,87270.00
2023-04-15T11:30:41.583Z,87268.00
2023-04-15T11:31:41.648Z,87266.00
2023-04-15T11:32:41.645Z,87264.00
2023-04-15T11:33:41.595Z,87268.00
2023-04-15T11:34:41.625Z,87266.00
2023-04-15T11:35:41.644Z,87270.00
2023-04-15T11:36:41.665Z,87270.00
2023-04-15T11:37:41.665Z,87270.00
2023-04-15T11:38:41.693Z,87274.00
2023-04-15T11:39:41.694Z,87274.00
2023-04-15T11:40:42.806Z,87274.00
2023-04-15T11:41:41.666Z,87274.00
2023-04-15T11:42:49.511Z,87274.00
2023-04-15T11:43:42.608Z,87272.00
2023-04-15T11:44:41.574Z,87272.00